Time;durP1;ratioP1;P1;durP2;ratioP2;P2;SDS_P1;SDS_P2;PMS_P1;PMS_P2;Temp;Humidity;BMP_temperature;BMP_pressure;BME280_temperature;BME280_humidity;BME280_pressure;Samples;Min_cycle;Max_cycle;Signal;HPM_P1;HPM_P2
2023/05/15 00:00:36;;;;;;;6.20;1.30;;;;;;;9.80;64.63;101608.38;4992168;28;20499;-46
2023/05/15 00:03:03;;;;;;;2.72;1.20;;;;;;;9.78;64.71;101610.66;4992233;28;20456;-44
2023/05/15 00:05:30;;;;;;;6.63;1.38;;;;;;;9.73;64.66;101613.56;4992118;28;20047;-45
2023/05/15 00:07:57;;;;;;;8.52;2.63;;;;;;;9.67;64.88;101615.63;4992149;28;20486;-44
2023/05/15 00:10:24;;;;;;;8.63;2.35;;;;;;;9.62;65.12;101617.72;4991663;28;20137;-48
2023/05/15 00:12:50;;;;;;;4.32;0.98;;;;;;;9.57;65.25;101610.38;4991789;28;20053;-45
2023/05/15 00:15:17;;;;;;;6.47;1.50;;;;;;;9.56;65.22;101613.44;4991874;28;20062;-47
2023/05/15 00:17:44;;;;;;;7.13;1.67;;;;;;;9.54;65.34;101615.72;4991731;28;20050;-45
2023/05/15 00:20:11;;;;;;;7.15;1.50;;;;;;;9.53;65.53;101617.66;4972437;28;20043;-44
2023/05/15 00:22:39;;;;;;;9.27;1.77;;;;;;;9.51;65.73;101610.81;4991787;28;20085;-45
2023/05/15 00:25:06;;;;;;;6.93;1.63;;;;;;;9.51;65.80;101616.34;4991575;28;20047;-49
2023/05/15 00:27:33;;;;;;;5.10;1.23;;;;;;;9.49;65.85;101615.88;4992072;28;20125;-49
2023/05/15 00:30:00;;;;;;;6.35;1.20;;;;;;;9.49;65.86;101613.91;4991493;28;20046;-45
2023/05/15 00:32:27;;;;;;;5.15;1.20;;;;;;;9.45;66.22;101623.97;4991505;28;20058;-44
2023/05/15 00:34:54;;;;;;;3.70;1.20;;;;;;;9.43;66.41;101614.34;4991168;28;20049;-45
2023/05/15 00:37:22;;;;;;;7.35;1.23;;;;;;;9.41;66.59;101620.22;4991625;28;20121;-45
2023/05/15 00:39:48;;;;;;;8.75;1.20;;;;;;;9.40;66.61;101626.84;4991458;28;20065;-44
2023/05/15 00:42:17;;;;;;;5.65;1.35;;;;;;;9.39;66.65;101629.94;4991331;28;20069;-45
2023/05/15 00:44:44;;;;;;;5.68;1.88;;;;;;;9.36;66.77;101627.81;4991142;28;20156;-55
2023/05/15 00:47:12;;;;;;;3.95;1.33;;;;;;;9.31;67.06;101625.19;4991209;28;20101;-45
2023/05/15 00:49:40;;;;;;;7.43;1.20;;;;;;;9.28;67.25;101625.81;4989733;28;20042;-46
2023/05/15 00:52:10;;;;;;;5.45;1.13;;;;;;;9.29;67.22;101621.94;4990983;28;20046;-45
2023/05/15 00:54:37;;;;;;;11.93;1.75;;;;;;;9.26;67.32;101622.56;4990967;28;20081;-44
2023/05/15 00:57:05;;;;;;;10.02;2.28;;;;;;;9.24;67.39;101625.63;4991186;28;20552;-45
2023/05/15 00:59:33;;;;;;;6.70;1.10;;;;;;;9.22;67.56;101630.66;4990952;28;20129;-48
2023/05/15 01:02:00;;;;;;;3.35;1.38;;;;;;;9.21;67.75;101628.22;4991060;28;20054;-45
2023/05/15 01:04:28;;;;;;;4.82;1.73;;;;;;;9.19;67.60;101631.28;4991004;28;20054;-44
2023/05/15 01:06:55;;;;;;;6.75;1.35;;;;;;;9.14;67.77;101639.69;4990765;28;20046;-45
2023/05/15 01:09:28;;;;;;;4.35;1.02;;;;;;;9.14;67.93;101632.22;4990877;28;20050;-45
2023/05/15 01:11:57;;;;;;;5.32;1.40;;;;;;;9.10;67.99;101639.53;4990862;28;20407;-45
2023/05/15 01:14:24;;;;;;;10.57;2.67;;;;;;;9.06;68.33;101632.97;4990079;28;20078;-48
2023/05/15 01:16:52;;;;;;;4.47;1.08;;;;;;;9.04;68.32;101629.72;4990506;28;20042;-44
2023/05/15 01:19:19;;;;;;;7.43;1.08;;;;;;;9.04;68.53;101638.00;4972901;28;20074;-46
2023/05/15 01:22:14;;;;;;;7.20;1.10;;;;;;;9.05;68.80;101639.63;4990781;28;20081;-45
2023/05/15 01:25:02;;;;;;;5.00;0.75;;;;;;;9.05;68.57;101636.84;4991066;28;20065;-45
2023/05/15 01:27:36;;;;;;;7.18;1.08;;;;;;;9.07;68.63;101631.84;4979268;28;20042;-45
2023/05/15 01:30:17;;;;;;;6.57;1.08;;;;;;;9.08;68.63;101641.75;4990448;28;20054;-44
2023/05/15 01:33:01;;;;;;;6.28;1.10;;;;;;;9.07;68.66;101639.31;4990607;28;20052;-45
2023/05/15 01:35:44;;;;;;;4.50;1.10;;;;;;;9.01;68.76;101646.91;4973098;28;20046;-44
2023/05/15 01:38:26;;;;;;;5.90;1.10;;;;;;;8.98;69.05;101641.19;4990237;28;20223;-45
2023/05/15 01:41:02;;;;;;;5.18;1.20;;;;;;;8.96;68.92;101637.94;4990292;28;20053;-44
2023/05/15 01:43:32;;;;;;;4.25;1.17;;;;;;;8.90;69.12;101653.78;4990246;28;20054;-51
2023/05/15 01:45:59;;;;;;;6.28;1.92;;;;;;;8.86;69.15;101650.03;4990051;28;20046;-45
2023/05/15 01:48:27;;;;;;;4.00;0.95;;;;;;;8.83;69.54;101653.41;4987556;28;20070;-45
2023/05/15 01:51:00;;;;;;;10.18;1.67;;;;;;;8.80;69.71;101651.28;4972253;28;20054;-49
2023/05/15 01:53:27;;;;;;;;;;;;;;;8.74;69.87;101652.50;4991119;28;20129;-44
2023/05/15 01:55:55;;;;;;;5.45;1.02;;;;;;;8.71;69.77;101647.59;4990210;28;20471;-45
2023/05/15 01:58:25;;;;;;;5.22;2.00;;;;;;;8.68;70.00;101656.53;4990407;28;20042;-47
2023/05/15 02:00:52;;;;;;;6.00;1.58;;;;;;;8.63;69.91;101656.63;4972437;28;20085;-45
2023/05/15 02:03:19;;;;;;;11.27;1.67;;;;;;;8.62;70.23;101659.69;4990096;28;20057;-47
2023/05/15 02:05:48;;;;;;;14.13;2.55;;;;;;;8.62;70.13;101660.53;4990052;28;20070;-45
2023/05/15 02:08:15;;;;;;;5.47;1.20;;;;;;;8.62;70.16;101649.50;4989936;28;20088;-44
2023/05/15 02:10:43;;;;;;;10.98;1.33;;;;;;;8.60;70.46;101650.94;4989767;28;20034;-44
2023/05/15 02:13:11;;;;;;;8.93;1.63;;;;;;;8.59;70.32;101647.34;4989609;28;20105;-47
2023/05/15 02:15:38;;;;;;;6.65;1.50;;;;;;;8.58;70.55;101648.44;4989829;28;20584;-44
2023/05/15 02:18:05;;;;;;;6.78;3.85;;;;;;;8.57;70.38;101652.34;4988026;28;20107;-45
2023/05/15 02:20:32;;;;;;;5.15;1.35;;;;;;;8.53;70.62;101651.34;4989465;28;20535;-45
2023/05/15 02:22:58;;;;;;;4.90;1.30;;;;;;;8.46;70.65;101656.47;4989989;28;20077;-44
2023/05/15 02:25:37;;;;;;;7.32;2.03;;;;;;;8.43;70.87;101640.53;4972126;28;20054;-45
2023/05/15 02:28:10;;;;;;;7.18;1.55;;;;;;;8.45;71.01;101638.25;4989789;28;20066;-48
2023/05/15 02:30:54;;;;;;;5.32;1.35;;;;;;;8.47;70.85;101652.59;4989786;28;20113;-44
2023/05/15 02:33:41;;;;;;;5.75;2.65;;;;;;;8.47;71.07;101644.31;4969836;28;20062;-44
2023/05/15 02:36:13;;;;;;;3.17;1.17;;;;;;;8.45;70.86;101649.28;4955402;28;20120;-49
2023/05/15 02:38:52;;;;;;;9.70;1.38;;;;;;;8.40;70.75;101658.50;4955253;28;20927;-46
2023/05/15 02:41:21;;;;;;;4.10;1.00;;;;;;;8.40;71.01;101646.66;4954741;28;20050;-47
2023/05/15 02:43:51;;;;;;;5.78;1.80;;;;;;;8.36;71.01;101664.97;4956651;28;20100;-47
2023/05/15 02:46:19;;;;;;;4.70;1.17;;;;;;;8.23;71.25;101652.78;4985031;28;20081;-50
2023/05/15 02:48:47;;;;;;;9.95;1.27;;;;;;;8.24;71.18;101665.44;4989681;28;20247;-48
2023/05/15 02:51:14;;;;;;;4.88;1.48;;;;;;;8.21;71.45;101659.72;4988875;28;20062;-45
2023/05/15 02:53:42;;;;;;;7.18;3.30;;;;;;;8.17;71.42;101658.69;4968355;28;20487;-49
2023/05/15 02:56:09;;;;;;;8.48;2.53;;;;;;;8.11;71.55;101670.94;4954373;28;20626;-47
2023/05/15 02:58:36;;;;;;;6.72;1.10;;;;;;;8.05;71.95;101666.69;4954680;28;21814;-49
2023/05/15 03:01:03;;;;;;;5.78;1.08;;;;;;;8.07;71.89;101669.94;5011072;22;20454;-45
2023/05/15 03:03:30;;;;;;;10.75;3.70;;;;;;;8.05;72.00;101670.22;4999789;28;20055;-48
2023/05/15 03:05:59;;;;;;;4.43;1.83;;;;;;;8.03;72.02;101668.91;4986895;28;20080;-47
2023/05/15 03:08:28;;;;;;;5.47;2.35;;;;;;;7.98;72.14;101678.09;4988873;28;20079;-43
2023/05/15 03:10:55;;;;;;;5.68;2.10;;;;;;;7.97;72.32;101670.94;5028426;28;20049;-42
2023/05/15 03:13:21;;;;;;;4.10;1.13;;;;;;;7.94;72.51;101666.84;5032152;28;20053;-46
2023/05/15 03:15:48;;;;;;;4.22;1.42;;;;;;;7.92;72.50;101673.78;4991760;28;20049;-43
2023/05/15 03:18:17;;;;;;;6.65;1.55;;;;;;;7.89;72.85;101679.91;4991511;28;21812;-44
2023/05/15 03:20:47;;;;;;;3.75;1.23;;;;;;;7.87;72.63;101673.91;4990787;28;20143;-46
2023/05/15 03:23:14;;;;;;;10.18;1.95;;;;;;;7.85;72.92;101674.22;4990782;28;20756;-44
2023/05/15 03:25:41;;;;;;;6.50;1.73;;;;;;;7.85;72.91;101679.72;4992163;28;20046;-45
2023/05/15 03:28:08;;;;;;;7.28;1.02;;;;;;;7.89;72.88;101679.91;4984692;28;20171;-48
2023/05/15 03:30:35;;;;;;;3.97;1.23;;;;;;;7.91;72.99;101684.03;4990653;28;20061;-44
2023/05/15 03:33:05;;;;;;;6.53;1.00;;;;;;;7.87;73.06;101679.41;4991959;28;20511;-46
2023/05/15 03:35:32;;;;;;;2.90;1.30;;;;;;;7.86;73.00;101686.06;4991278;28;20069;-45
2023/05/15 03:37:59;;;;;;;6.75;1.38;;;;;;;7.85;73.04;101688.00;4990368;28;21727;-44
2023/05/15 03:40:28;;;;;;;7.70;1.40;;;;;;;7.82;73.07;101688.59;5019586;28;20483;-43
2023/05/15 03:42:55;;;;;;;8.07;1.48;;;;;;;7.81;73.14;101692.47;5032321;28;20049;-43
2023/05/15 03:45:21;;;;;;;7.00;1.40;;;;;;;7.82;73.42;101690.53;5031800;28;20145;-44
2023/05/15 03:47:49;;;;;;;4.20;0.88;;;;;;;7.78;73.53;101687.56;5031583;28;20490;-43
2023/05/15 03:50:16;;;;;;;3.78;1.08;;;;;;;7.74;73.49;101689.31;5031850;28;20041;-45
2023/05/15 03:52:43;;;;;;;2.38;0.90;;;;;;;7.73;73.57;101695.13;5031570;28;20069;-49
2023/05/15 03:55:10;;;;;;;7.35;1.30;;;;;;;7.67;73.48;101693.56;5031480;28;20511;-43
2023/05/15 03:57:37;;;;;;;3.85;1.17;;;;;;;7.67;73.56;101682.56;5031503;28;20053;-43
2023/05/15 04:00:08;;;;;;;6.82;1.40;;;;;;;7.62;73.86;101686.22;5031557;28;20120;-44
2023/05/15 04:02:36;;;;;;;4.68;0.80;;;;;;;7.59;73.90;101681.31;5031304;28;20621;-43
2023/05/15 04:05:04;;;;;;;5.68;1.88;;;;;;;7.57;74.06;101691.78;5031506;28;20495;-44
2023/05/15 04:07:32;;;;;;;7.43;1.48;;;;;;;7.59;74.13;101683.25;5031243;28;20049;-45
2023/05/15 04:10:00;;;;;;;5.85;1.65;;;;;;;7.58;74.07;101687.94;5030474;28;20593;-43
2023/05/15 04:12:28;;;;;;;11.27;2.50;;;;;;;7.59;73.99;101686.00;5031486;28;20156;-44
2023/05/15 04:15:12;;;;;;;7.63;1.85;;;;;;;7.54;74.00;101681.41;5031886;28;20053;-43
2023/05/15 04:17:38;;;;;;;4.43;2.35;;;;;;;7.51;74.02;101694.97;5031514;28;20075;-43
2023/05/15 04:20:06;;;;;;;10.93;2.85;;;;;;;7.46;74.16;101686.78;5031082;28;20049;-47
2023/05/15 04:22:33;;;;;;;5.55;2.22;;;;;;;7.44;74.36;101683.50;5017908;28;20050;-43
2023/05/15 04:24:59;;;;;;;7.60;2.58;;;;;;;7.44;74.33;101687.06;5031064;28;20042;-43
2023/05/15 04:27:26;;;;;;;8.70;2.20;;;;;;;7.44;74.23;101681.56;5018612;28;20475;-42
2023/05/15 04:29:53;;;;;;;13.43;2.50;;;;;;;7.42;74.41;101682.97;5030874;28;20059;-43
2023/05/15 04:32:20;;;;;;;6.88;2.10;;;;;;;7.35;74.60;101681.44;5013377;28;20056;-46
2023/05/15 04:34:47;;;;;;;8.38;2.22;;;;;;;7.30;74.46;101683.47;5030780;28;20049;-46
2023/05/15 04:37:14;;;;;;;11.52;2.42;;;;;;;7.26;74.61;101685.16;5031169;28;20099;-44
2023/05/15 04:39:41;;;;;;;9.30;3.50;;;;;;;7.25;74.84;101694.56;5028763;28;20050;-43
2023/05/15 04:42:07;;;;;;;10.52;2.63;;;;;;;7.24;74.70;101682.72;5030825;28;20068;-43
2023/05/15 04:44:34;;;;;;;9.15;2.45;;;;;;;7.27;74.88;101689.56;5030761;28;20153;-43
2023/05/15 04:47:01;;;;;;;9.27;2.33;;;;;;;7.25;74.88;101680.78;5030924;28;20491;-43
2023/05/15 04:49:28;;;;;;;8.63;1.35;;;;;;;7.22;74.61;101684.16;5030502;28;20117;-43
2023/05/15 04:51:54;;;;;;;4.43;1.30;;;;;;;7.16;74.89;101682.59;5030441;28;20049;-43
2023/05/15 04:54:21;;;;;;;5.45;1.48;;;;;;;7.12;75.33;101678.81;5030186;28;20136;-50
2023/05/15 04:56:48;;;;;;;8.60;1.20;;;;;;;7.14;75.20;101682.91;5030770;28;20083;-43
2023/05/15 04:59:16;;;;;;;6.63;1.48;;;;;;;7.09;75.14;101691.25;5030078;28;20513;-44
2023/05/15 05:01:44;;;;;;;7.75;2.35;;;;;;;7.07;75.40;101690.69;5028772;28;20063;-44
2023/05/15 05:04:11;;;;;;;8.95;1.38;;;;;;;7.00;75.76;101686.69;5028835;28;20073;-43
2023/05/15 05:06:37;;;;;;;7.75;1.17;;;;;;;6.98;75.66;101684.25;5030270;28;20065;-46
2023/05/15 05:09:04;;;;;;;7.95;1.77;;;;;;;6.99;75.88;101688.63;5030248;28;20049;-44
2023/05/15 05:11:31;;;;;;;3.42;1.20;;;;;;;7.00;75.80;101683.94;5029914;28;20037;-44
2023/05/15 05:13:58;;;;;;;10.18;1.88;;;;;;;6.99;75.60;101696.88;5012312;28;20566;-43
2023/05/15 05:16:24;;;;;;;10.93;3.65;;;;;;;7.00;75.83;101701.28;5030414;28;20053;-43
2023/05/15 05:18:51;;;;;;;6.20;1.30;;;;;;;7.04;76.12;101696.00;5029854;28;20541;-43
2023/05/15 05:21:18;;;;;;;3.67;1.08;;;;;;;7.02;75.75;101703.72;5012183;28;20107;-47
2023/05/15 05:23:46;;;;;;;6.25;1.88;;;;;;;7.03;76.14;101703.44;5029695;28;20049;-43
2023/05/15 05:26:12;;;;;;;4.72;1.40;;;;;;;7.07;76.15;101700.91;5030252;28;20110;-43
2023/05/15 05:28:39;;;;;;;9.98;1.85;;;;;;;7.06;76.04;101697.34;5027978;28;20128;-46
2023/05/15 05:31:06;;;;;;;4.20;1.20;;;;;;;7.03;76.15;101705.38;5029923;28;20487;-44
2023/05/15 05:33:33;;;;;;;3.72;1.63;;;;;;;7.00;76.17;101711.47;5028959;28;20442;-44
2023/05/15 05:36:00;;;;;;;6.00;1.48;;;;;;;7.04;76.19;101704.25;5008134;28;20042;-43
2023/05/15 05:38:26;;;;;;;5.55;1.38;;;;;;;7.08;76.32;101708.88;5029849;28;20080;-44
2023/05/15 05:40:53;;;;;;;9.88;1.88;;;;;;;7.13;76.52;101717.03;5028652;28;20517;-43
2023/05/15 05:43:20;;;;;;;10.18;1.30;;;;;;;7.17;76.62;101717.28;5029290;28;20099;-43
2023/05/15 05:45:47;;;;;;;4.95;2.53;;;;;;;7.18;76.49;101710.63;5029181;28;20487;-43
2023/05/15 05:48:14;;;;;;;7.07;1.17;;;;;;;7.22;76.13;101714.44;5029163;28;20045;-43
2023/05/15 05:50:41;;;;;;;5.65;1.23;;;;;;;7.24;76.53;101718.53;5029484;28;20574;-43
2023/05/15 05:53:08;;;;;;;4.22;1.50;;;;;;;7.33;76.42;101713.97;5011181;28;20094;-46
2023/05/15 05:55:34;;;;;;;6.80;1.50;;;;;;;7.40;76.47;101718.28;5029311;28;20121;-43
2023/05/15 05:58:02;;;;;;;6.07;1.65;;;;;;;7.46;76.44;101717.09;5027696;28;20046;-44
2023/05/15 06:00:34;;;;;;;2.83;1.00;;;;;;;7.51;76.40;101723.34;5029067;28;20049;-50
2023/05/15 06:03:01;;;;;;;8.35;1.25;;;;;;;7.58;76.71;101729.25;5007834;28;20141;-43
2023/05/15 06:05:28;;;;;;;5.05;1.23;;;;;;;7.63;76.53;101720.91;5009724;28;20132;-43
2023/05/15 06:07:55;;;;;;;5.43;1.45;;;;;;;7.69;76.82;101725.22;5009320;28;20400;-43
2023/05/15 06:10:22;;;;;;;9.52;1.52;;;;;;;7.77;76.44;101726.47;5009245;28;20085;-43
2023/05/15 06:12:49;;;;;;;6.93;1.48;;;;;;;7.82;76.62;101729.13;5009304;28;20488;-43
2023/05/15 06:15:16;;;;;;;5.57;1.35;;;;;;;7.88;76.50;101728.75;5009349;28;20136;-44
2023/05/15 06:17:42;;;;;;;7.07;1.73;;;;;;;7.93;76.21;101725.06;5009318;28;20038;-43
2023/05/15 06:20:09;;;;;;;4.07;1.27;;;;;;;7.94;76.66;101727.50;5008871;28;20077;-43
2023/05/15 06:22:37;;;;;;;10.75;1.50;;;;;;;8.03;76.57;101729.56;5009314;28;20038;-43
2023/05/15 06:25:05;;;;;;;4.65;1.40;;;;;;;8.08;76.58;101732.22;5009326;28;20086;-43
2023/05/15 06:27:33;;;;;;;4.00;1.35;;;;;;;8.12;76.54;101727.75;5008403;28;20054;-43
2023/05/15 06:30:00;;;;;;;5.18;1.85;;;;;;;8.15;76.33;101732.66;5008868;28;20053;-43
2023/05/15 06:32:28;;;;;;;6.40;1.27;;;;;;;8.20;76.37;101729.81;5009401;28;20056;-43
2023/05/15 06:34:55;;;;;;;5.63;1.52;;;;;;;8.24;76.49;101722.53;5009131;28;20045;-43
2023/05/15 06:37:21;;;;;;;4.68;0.98;;;;;;;8.31;76.34;101723.00;5008563;28;20053;-46
2023/05/15 06:39:48;;;;;;;9.35;1.33;;;;;;;8.33;76.16;101718.00;5007196;28;20134;-44
2023/05/15 06:42:15;;;;;;;4.78;1.20;;;;;;;8.34;76.19;101714.13;5008875;28;20041;-43
2023/05/15 06:44:41;;;;;;;10.40;2.67;;;;;;;8.37;76.47;101716.25;5008904;28;20065;-45
2023/05/15 06:47:08;;;;;;;8.15;1.35;;;;;;;8.46;76.31;101722.69;5009318;28;20052;-45
2023/05/15 06:49:35;;;;;;;5.35;1.77;;;;;;;8.55;76.18;101715.34;5008782;28;20053;-43
2023/05/15 06:52:02;;;;;;;6.15;1.50;;;;;;;8.60;76.27;101719.94;5008703;28;20581;-44
2023/05/15 06:54:29;;;;;;;9.52;1.55;;;;;;;8.63;76.03;101716.56;5008824;28;20140;-43
2023/05/15 06:56:55;;;;;;;4.03;1.00;;;;;;;8.64;76.08;101719.00;5006270;28;20050;-44
2023/05/15 06:59:22;;;;;;;7.50;1.58;;;;;;;8.71;76.04;101713.06;5008826;28;20153;-44
2023/05/15 07:01:49;;;;;;;3.80;1.38;;;;;;;8.80;76.02;101720.31;5018602;28;20096;-45
2023/05/15 07:04:16;;;;;;;6.68;1.30;;;;;;;8.83;75.96;101722.44;5028556;28;20043;-46
2023/05/15 07:06:43;;;;;;;5.10;1.13;;;;;;;8.90;76.00;101727.53;5028557;28;20050;-47
2023/05/15 07:09:11;;;;;;;6.43;1.20;;;;;;;8.98;75.93;101730.38;5028362;28;20123;-43
2023/05/15 07:11:39;;;;;;;4.72;1.50;;;;;;;9.06;75.95;101726.88;5028623;28;20053;-43
2023/05/15 07:14:06;;;;;;;5.65;1.23;;;;;;;9.11;75.94;101726.78;5010787;28;20053;-44
2023/05/15 07:16:33;;;;;;;5.32;1.23;;;;;;;9.19;75.88;101731.56;5029108;28;20092;-46
2023/05/15 07:19:00;;;;;;;5.18;1.58;;;;;;;9.29;75.96;101735.22;5028358;28;20075;-44
2023/05/15 07:21:29;;;;;;;13.93;1.70;;;;;;;9.39;75.97;101740.50;5027745;28;20050;-44
2023/05/15 07:23:57;;;;;;;12.43;3.35;;;;;;;9.48;76.11;101735.84;5027973;28;20037;-45
2023/05/15 07:26:24;;;;;;;8.40;2.17;;;;;;;9.58;76.33;101755.75;5027618;28;20053;-43
2023/05/15 07:29:04;;;;;;;7.47;1.48;;;;;;;9.72;76.61;101756.53;5028969;28;20270;-43
2023/05/15 07:31:32;;;;;;;5.85;1.30;;;;;;;9.82;76.89;101749.94;5028533;28;20056;-43
2023/05/15 07:33:59;;;;;;;7.28;1.63;;;;;;;9.97;77.44;101757.81;5028153;28;20460;-43
2023/05/15 07:36:25;;;;;;;11.05;1.77;;;;;;;10.10;77.96;101756.09;5028531;28;20057;-43
2023/05/15 07:38:52;;;;;;;6.93;1.23;;;;;;;10.28;78.41;101758.66;5028444;28;20065;-51
2023/05/15 07:41:19;;;;;;;8.52;1.50;;;;;;;10.45;78.68;101760.72;5026528;28;20148;-43
2023/05/15 07:43:46;;;;;;;3.97;1.17;;;;;;;10.63;79.35;101769.88;5028050;28;20059;-43
2023/05/15 07:46:13;;;;;;;5.93;1.70;;;;;;;10.82;79.73;101767.66;5028030;28;20056;-44
2023/05/15 07:48:39;;;;;;;12.80;1.90;;;;;;;11.00;80.50;101769.34;5028348;28;20430;-43
2023/05/15 07:51:07;;;;;;;9.73;1.33;;;;;;;11.18;81.28;101771.00;5026437;28;20042;-44
2023/05/15 07:53:33;;;;;;;5.63;1.10;;;;;;;11.44;82.17;101762.69;5027684;28;20045;-43
2023/05/15 07:56:00;;;;;;;4.45;1.15;;;;;;;11.76;83.27;101769.72;5027910;28;20084;-43
2023/05/15 07:58:27;;;;;;;3.28;0.95;;;;;;;12.20;84.44;101764.56;5030372;28;20128;-49
2023/05/15 08:00:54;;;;;;;8.35;2.25;;;;;;;12.76;83.63;101766.13;5031179;28;21365;-46
2023/05/15 08:03:21;;;;;;;4.75;1.38;;;;;;;13.32;82.61;101766.75;5031545;28;20042;-44
2023/05/15 08:05:48;;;;;;;8.30;2.15;;;;;;;14.02;81.18;101760.25;5031280;28;20136;-47
2023/05/15 08:08:14;;;;;;;4.05;1.25;;;;;;;14.82;78.18;101764.22;5014071;28;20100;-44
2023/05/15 08:10:41;;;;;;;7.95;1.33;;;;;;;15.65;74.96;101769.16;5029844;28;20103;-44
2023/05/15 08:13:08;;;;;;;6.88;1.25;;;;;;;16.37;71.65;101770.75;5031001;28;20041;-51
2023/05/15 08:15:35;;;;;;;5.78;1.45;;;;;;;17.11;68.72;101769.84;5031180;28;20037;-44
2023/05/15 08:18:07;;;;;;;3.80;1.00;;;;;;;17.71;65.61;101776.00;5028002;28;20049;-44
2023/05/15 08:20:34;;;;;;;3.05;1.05;;;;;;;18.02;62.92;101776.63;5030895;28;20033;-45
2023/05/15 08:23:00;;;;;;;3.08;0.88;;;;;;;18.46;60.45;101779.84;5031485;28;20049;-46
2023/05/15 08:25:27;;;;;;;3.55;0.90;;;;;;;18.82;58.67;101781.31;5031086;28;20132;-48
2023/05/15 08:27:54;;;;;;;4.85;0.70;;;;;;;19.22;56.43;101784.31;5031262;28;20495;-48
2023/05/15 08:30:20;;;;;;;2.90;0.55;;;;;;;19.44;55.30;101779.84;5031037;28;20124;-48
2023/05/15 08:32:48;;;;;;;3.92;0.70;;;;;;;19.77;52.96;101793.13;5030850;28;20475;-45
2023/05/15 08:35:14;;;;;;;3.28;0.95;;;;;;;20.09;52.12;101791.50;5030597;28;20041;-46
2023/05/15 08:37:41;;;;;;;2.22;0.50;;;;;;;20.34;50.91;101788.97;5030959;28;20057;-44
2023/05/15 08:40:09;;;;;;;4.22;0.80;;;;;;;20.65;49.76;101789.28;5030439;28;20038;-45
2023/05/15 08:42:44;;;;;;;4.25;0.95;;;;;;;20.90;49.15;101783.88;5028777;28;20144;-45
2023/05/15 08:45:12;;;;;;;4.75;1.00;;;;;;;20.97;48.34;101789.53;5017778;28;20045;-44
2023/05/15 08:47:41;;;;;;;2.15;0.65;;;;;;;21.12;47.13;101796.94;5030394;28;20042;-45
2023/05/15 08:50:12;;;;;;;2.25;0.50;;;;;;;21.51;46.70;101797.16;5030656;28;20133;-44
2023/05/15 08:52:42;;;;;;;;;;;;;;;21.59;47.90;101787.56;5030783;28;20422;-44
2023/05/15 08:55:10;;;;;;;4.25;1.10;;;;;;;21.55;47.20;101797.19;5030686;28;19929;-44
2023/05/15 08:57:39;;;;;;;3.25;1.08;;;;;;;21.63;45.82;101798.84;5030334;28;20046;-44
2023/05/15 09:00:08;;;;;;;3.35;0.88;;;;;;;21.62;45.07;101798.03;5012466;28;20057;-44
2023/05/15 09:02:36;;;;;;;4.72;0.60;;;;;;;21.18;44.21;101798.16;5029866;28;20057;-45
2023/05/15 09:05:05;;;;;;;3.63;0.68;;;;;;;19.80;45.38;101793.16;5012940;28;20053;-44
2023/05/15 09:07:32;;;;;;;3.97;0.65;;;;;;;19.28;46.01;101793.22;5030378;28;20403;-49
2023/05/15 09:10:02;;;;;;;2.35;0.68;;;;;;;18.83;46.03;101789.34;5029337;28;20403;-44
2023/05/15 09:12:32;;;;;;;2.90;0.70;;;;;;;19.42;46.38;101785.03;5012456;28;20045;-44
2023/05/15 09:15:16;;;;;;;3.83;0.95;;;;;;;20.24;45.24;101787.69;5030290;28;20404;-44
2023/05/15 09:17:44;;;;;;;5.72;0.70;;;;;;;20.91;43.93;101795.94;5022767;28;20065;-45
2023/05/15 09:20:35;;;;;;;4.78;0.70;;;;;;;20.42;43.67;101790.66;5030633;28;20487;-45
2023/05/15 09:23:04;;;;;;;1.65;0.50;;;;;;;19.50;43.97;101789.56;5030061;28;20153;-46
2023/05/15 09:25:39;;;;;;;3.55;0.75;;;;;;;19.12;44.76;101789.75;5029397;28;20072;-44
2023/05/15 09:28:09;;;;;;;3.83;0.80;;;;;;;19.79;44.47;101785.94;5029923;28;20046;-44
2023/05/15 09:30:41;;;;;;;2.55;0.70;;;;;;;20.68;43.42;101793.31;5029737;28;20092;-46
2023/05/15 09:33:08;;;;;;;5.28;1.05;;;;;;;21.43;42.75;101801.16;5029667;28;20398;-44
2023/05/15 09:35:37;;;;;;;2.30;0.85;;;;;;;22.08;41.61;101798.25;5025114;28;20053;-44
2023/05/15 09:38:09;;;;;;;2.20;0.75;;;;;;;22.54;40.96;101792.69;5029693;28;20087;-44
2023/05/15 09:40:37;;;;;;;5.68;0.85;;;;;;;22.70;40.62;101790.31;5026590;28;20087;-44
2023/05/15 09:43:04;;;;;;;4.93;0.50;;;;;;;22.82;39.74;101791.94;5029693;28;20045;-44
2023/05/15 09:45:31;;;;;;;2.03;0.50;;;;;;;22.27;40.02;101799.91;5029631;28;20073;-44
2023/05/15 09:48:05;;;;;;;2.05;0.68;;;;;;;21.08;40.52;101800.91;5029401;28;20042;-46
2023/05/15 09:50:35;;;;;;;7.85;2.13;;;;;;;19.72;42.04;101783.03;5029599;28;20041;-44
2023/05/15 09:53:02;;;;;;;2.55;0.50;;;;;;;18.68;43.06;101784.69;5029343;28;20076;-44
2023/05/15 09:55:33;;;;;;;0.90;0.50;;;;;;;17.74;44.22;101776.03;5029686;28;20050;-44
2023/05/15 09:58:14;;;;;;;3.88;0.88;;;;;;;17.05;45.73;101782.47;5028289;28;20575;-50
2023/05/15 10:00:42;;;;;;;4.47;0.70;;;;;;;16.70;46.31;101781.63;5027448;28;20037;-46
2023/05/15 10:03:18;;;;;;;3.13;0.70;;;;;;;17.04;46.27;101776.09;5029444;28;20077;-45
2023/05/15 10:05:45;;;;;;;3.00;0.60;;;;;;;18.07;45.07;101775.50;5029847;28;20132;-48
2023/05/15 10:08:14;;;;;;;2.63;0.70;;;;;;;19.15;43.87;101777.78;5029736;28;20049;-44
2023/05/15 10:10:42;;;;;;;2.05;0.57;;;;;;;19.46;42.34;101777.44;5029528;28;20088;-47
2023/05/15 10:13:10;;;;;;;2.47;0.63;;;;;;;19.08;41.88;101786.09;5029261;28;20095;-47
2023/05/15 10:15:38;;;;;;;2.15;0.40;;;;;;;19.08;42.83;101783.31;5029361;28;20056;-44
2023/05/15 10:18:06;;;;;;;2.30;0.60;;;;;;;19.32;41.86;101788.47;5016187;28;20077;-48
2023/05/15 10:20:34;;;;;;;3.28;0.95;;;;;;;18.79;42.72;101780.06;5028976;28;20487;-44
2023/05/15 10:23:04;;;;;;;3.30;0.77;;;;;;;18.19;43.54;101786.53;5029124;28;20073;-44
2023/05/15 10:25:44;;;;;;;2.38;1.13;;;;;;;17.79;44.31;101777.75;5028875;28;20136;-45
2023/05/15 10:28:11;;;;;;;1.02;0.50;;;;;;;17.71;43.78;101781.59;5029217;28;20055;-45
2023/05/15 10:30:38;;;;;;;0.75;0.32;;;;;;;17.36;44.15;101792.81;5025968;28;20128;-45
2023/05/15 10:33:06;;;;;;;2.50;0.38;;;;;;;17.00;44.58;101785.56;5028442;28;20053;-44
2023/05/15 10:35:35;;;;;;;1.92;0.68;;;;;;;16.67;45.25;101777.56;5024058;28;20388;-44
2023/05/15 10:38:04;;;;;;;3.28;1.33;;;;;;;16.39;45.80;101780.41;5028821;28;20045;-48
2023/05/15 10:40:35;;;;;;;1.70;0.35;;;;;;;16.14;46.80;101792.91;4993298;28;20053;-44
2023/05/15 10:43:03;;;;;;;1.83;0.43;;;;;;;16.00;47.12;101795.31;5028817;28;20447;-48
2023/05/15 10:45:31;;;;;;;2.78;0.90;;;;;;;15.96;47.42;101800.00;5028360;28;20049;-48
2023/05/15 10:47:59;;;;;;;2.05;0.50;;;;;;;16.05;47.58;101800.63;5028526;28;20126;-47
2023/05/15 10:50:26;;;;;;;4.72;0.75;;;;;;;16.10;47.85;101805.16;5011343;28;20048;-46
2023/05/15 10:52:54;;;;;;;3.58;0.40;;;;;;;16.07;47.60;101797.50;5028577;28;20080;-47
2023/05/15 10:55:22;;;;;;;3.08;0.80;;;;;;;16.04;48.15;101803.81;5028295;28;20045;-44
2023/05/15 10:57:48;;;;;;;1.65;0.80;;;;;;;16.15;48.27;101800.13;5027530;28;20065;-44
2023/05/15 11:00:21;;;;;;;2.13;0.52;;;;;;;16.33;48.27;101807.03;5027764;28;20530;-45
2023/05/15 11:02:55;;;;;;;0.60;0.32;;;;;;;16.35;47.84;101807.47;5027549;28;20088;-47
2023/05/15 11:05:23;;;;;;;2.13;0.60;;;;;;;16.49;47.77;101811.81;5028494;28;20038;-49
2023/05/15 11:08:26;;;;;;;0.93;0.47;;;;;;;16.86;47.28;101807.63;5028290;28;20079;-46
2023/05/15 11:10:53;;;;;;;1.52;0.65;;;;;;;17.14;46.92;101808.28;4948326;29;20066;-44
2023/05/15 11:13:20;;;;;;;1.70;0.30;;;;;;;17.19;46.61;101804.38;5008347;28;20571;-44
2023/05/15 11:15:47;;;;;;;2.50;0.50;;;;;;;17.11;46.46;101811.81;5028325;28;20121;-48
2023/05/15 11:18:15;;;;;;;1.17;0.30;;;;;;;17.09;46.52;101811.38;5028392;28;20108;-46
2023/05/15 11:20:51;;;;;;;3.60;0.60;;;;;;;17.11;46.24;101808.19;5010486;28;20046;-44
2023/05/15 11:23:22;;;;;;;1.85;0.30;;;;;;;17.19;46.24;101804.38;5028047;28;20579;-43
2023/05/15 11:26:00;;;;;;;1.17;0.30;;;;;;;17.23;45.74;101803.31;5028404;28;20503;-45
2023/05/15 11:28:27;;;;;;;1.77;0.40;;;;;;;17.16;45.90;101793.91;5027498;28;20483;-43
2023/05/15 11:31:05;;;;;;;2.00;0.70;;;;;;;17.28;45.74;101791.84;5027585;28;20491;-44
2023/05/15 11:33:32;;;;;;;0.50;0.30;;;;;;;17.55;45.41;101802.06;5013044;28;20045;-47
2023/05/15 11:36:00;;;;;;;1.30;0.60;;;;;;;17.43;45.11;101809.75;5029064;28;20092;-50